Terminal Aerodrome Forecast
Issued by NWS

Home | Current Version | Previous Version | Text Only | Print | Product List | Glossary On
Versions: 1 2 3 4 5 6 7 8 9 10 11 12 13 14 15 16 17 18 19 20 21 22 23 24 25 26
000
FTUS46 KOTX 050529
TAFCOE
TAF
KCOE 050529Z 0506/0606 01008KT P6SM FEW100
     FM050800 06012G20KT P6SM SCT100
     FM051300 02020G30KT P6SM FEW050 BKN100
     FM051800 03017G22KT P6SM FEW050 SCT100
     FM052300 04014KT P6SM FEW050
     FM060300 05010KT P6SM SKC
      AMD LTD TO CLD AND VIS=

USA.gov is the U.S. government's official web portal to all federal, state and local government web resources and services.